Time;durP1;ratioP1;P1;durP2;ratioP2;P2;SDS_P1;SDS_P2;PMS_P1;PMS_P2;Temp;Humidity;BMP_temperature;BMP_pressure;BME280_temperature;BME280_humidity;BME280_pressure;Samples;Min_cycle;Max_cycle;Signal;HPM_P1;HPM_P2
2022/06/12 00:01:37;;;;;;;0.00;0.00;;;20.30;69.20;;;;;;4119061;28;20054;-71
2022/06/12 00:04:02;;;;;;;0.00;0.00;;;20.30;69.20;;;;;;4118989;28;20054;-72
2022/06/12 00:06:27;;;;;;;0.00;0.00;;;20.20;69.30;;;;;;4119483;28;20038;-71
2022/06/12 00:08:49;;;;;;;0.00;0.00;;;20.20;69.70;;;;;;4132218;28;20377;-70
2022/06/12 00:11:19;;;;;;;0.00;0.00;;;20.10;70.00;;;;;;4119494;28;20050;-71
2022/06/12 00:13:50;;;;;;;;;;;20.10;70.10;;;;;;4131864;28;20051;-72
2022/06/12 00:16:18;;;;;;;0.00;0.00;;;19.90;70.10;;;;;;4119443;28;19921;-71
2022/06/12 00:18:43;;;;;;;0.00;0.00;;;19.90;70.70;;;;;;4132201;28;20042;-72
2022/06/12 00:21:10;;;;;;;0.00;0.00;;;19.90;70.90;;;;;;4119570;28;20054;-70
2022/06/12 00:23:34;;;;;;;0.00;0.00;;;19.80;70.90;;;;;;4132016;28;20449;-71
2022/06/12 00:26:01;;;;;;;0.00;0.00;;;19.80;70.90;;;;;;4118475;28;20369;-72
2022/06/12 00:28:25;;;;;;;0.00;0.00;;;19.90;70.80;;;;;;4145655;28;20053;-74
2022/06/12 00:30:49;;;;;;;0.00;0.00;;;19.90;70.70;;;;;;4118988;28;20062;-72
2022/06/12 00:33:12;;;;;;;0.00;0.00;;;19.80;70.70;;;;;;4119180;28;20051;-70
2022/06/12 00:35:35;;;;;;;0.00;0.00;;;19.90;70.70;;;;;;4119163;28;20546;-72
2022/06/12 00:37:57;;;;;;;0.00;0.00;;;19.90;70.80;;;;;;4140074;28;20059;-71
2022/06/12 00:40:24;;;;;;;0.00;0.00;;;19.90;70.90;;;;;;4145387;28;20054;-71
2022/06/12 00:42:54;;;;;;;0.00;0.00;;;19.80;71.30;;;;;;4119330;28;20054;-73
2022/06/12 00:45:46;;;;;;;0.00;0.00;;;19.70;71.40;;;;;;4119085;28;20082;-72
2022/06/12 00:48:24;;;;;;;0.00;0.00;;;19.70;71.70;;;;;;4128119;28;20398;-73
2022/06/12 00:51:11;;;;;;;0.00;0.00;;;19.60;71.90;;;;;;4131746;28;20054;-71
2022/06/12 00:53:39;;;;;;;0.00;0.00;;;19.50;72.10;;;;;;4118745;28;20055;-72
2022/06/12 00:56:20;;;;;;;0.00;0.00;;;19.50;72.10;;;;;;4104772;28;20043;-71
2022/06/12 00:59:01;;;;;;;0.00;0.00;;;19.50;72.00;;;;;;4105148;28;20050;-73
2022/06/12 01:01:33;;;;;;;0.00;0.00;;;19.50;72.20;;;;;;4102096;28;20094;-74
2022/06/12 01:06:50;;;;;;;0.00;0.00;;;19.40;72.30;;;;;;4118617;28;20465;-73
2022/06/12 01:09:26;;;;;;;0.00;0.00;;;19.40;72.50;;;;;;4118592;28;20122;-71
2022/06/12 01:11:51;;;;;;;0.00;0.00;;;19.40;72.60;;;;;;4103408;28;20074;-71
2022/06/12 01:14:22;;;;;;;0.00;0.00;;;19.40;72.60;;;;;;4104526;28;20082;-70
2022/06/12 01:16:50;;;;;;;0.00;0.00;;;19.40;72.60;;;;;;4118516;28;20051;-71
2022/06/12 01:19:29;;;;;;;0.00;0.00;;;19.30;72.60;;;;;;4104510;28;20047;-70
2022/06/12 01:22:28;;;;;;;0.00;0.00;;;19.30;72.50;;;;;;4104170;28;20130;-73
2022/06/12 01:25:24;;;;;;;0.00;0.00;;;19.30;72.70;;;;;;4095088;28;20055;-71
2022/06/12 01:28:22;;;;;;;0.00;0.00;;;19.30;72.50;;;;;;4118459;28;20046;-73
2022/06/12 01:31:20;;;;;;;0.00;0.00;;;19.30;72.70;;;;;;4105364;28;20063;-70
2022/06/12 01:33:59;;;;;;;0.00;0.00;;;19.20;72.80;;;;;;4104376;28;20051;-72
2022/06/12 01:36:36;;;;;;;0.00;0.00;;;19.20;72.70;;;;;;4117483;28;20062;-75
2022/06/12 01:39:25;;;;;;;0.00;0.00;;;19.10;72.80;;;;;;4090749;28;20132;-72
2022/06/12 01:42:05;;;;;;;0.00;0.00;;;19.10;72.90;;;;;;4117573;28;20370;-70
2022/06/12 01:44:47;;;;;;;0.00;0.00;;;19.10;72.90;;;;;;4090488;28;20044;-72
2022/06/12 01:47:24;;;;;;;0.00;0.00;;;19.10;73.00;;;;;;4117540;28;20058;-72
2022/06/12 01:49:58;;;;;;;0.00;0.00;;;19.10;73.10;;;;;;4130791;28;20116;-73
2022/06/12 01:52:28;;;;;;;0.00;0.00;;;19.10;73.00;;;;;;4103441;28;20059;-71
2022/06/12 01:55:02;;;;;;;0.00;0.00;;;19.10;73.10;;;;;;4103977;28;20102;-70
2022/06/12 01:57:45;;;;;;;0.00;0.00;;;19.00;73.10;;;;;;4103444;28;20122;-72
2022/06/12 02:00:15;;;;;;;0.00;0.00;;;19.00;73.10;;;;;;4103792;28;20510;-71
2022/06/12 02:02:55;;;;;;;0.00;0.00;;;19.00;73.40;;;;;;4076841;28;20424;-70
2022/06/12 02:05:33;;;;;;;0.00;0.00;;;19.00;73.40;;;;;;4117347;28;20051;-72
2022/06/12 02:07:58;;;;;;;0.00;0.00;;;19.00;73.60;;;;;;4103428;28;20119;-70
2022/06/12 02:10:39;;;;;;;0.00;0.00;;;19.00;73.80;;;;;;4116954;28;20065;-73
2022/06/12 02:13:13;;;;;;;;;;;18.90;74.00;;;;;;4103681;28;20047;-72
2022/06/12 02:15:45;;;;;;;0.00;0.00;;;18.90;74.00;;;;;;4116743;28;19965;-70
2022/06/12 02:18:37;;;;;;;0.00;0.00;;;18.80;74.00;;;;;;4103163;28;20171;-71
2022/06/12 02:21:02;;;;;;;0.00;0.00;;;18.90;74.10;;;;;;4090105;28;20064;-72
2022/06/12 02:23:37;;;;;;;0.00;0.00;;;18.90;74.30;;;;;;4103351;28;20066;-73
2022/06/12 02:26:02;;;;;;;0.00;0.00;;;18.80;74.50;;;;;;4103361;28;20051;-71
2022/06/12 02:28:38;;;;;;;0.00;0.00;;;18.80;74.80;;;;;;4089869;28;20130;-73
2022/06/12 02:31:05;;;;;;;0.00;0.00;;;18.80;75.00;;;;;;4103474;28;20051;-74
2022/06/12 02:33:35;;;;;;;0.00;0.00;;;18.80;75.10;;;;;;4104097;28;20047;-69
2022/06/12 02:36:12;;;;;;;0.00;0.00;;;18.80;75.10;;;;;;4090150;28;20055;-73
2022/06/12 02:38:50;;;;;;;0.00;0.00;;;18.70;75.10;;;;;;4076734;28;20056;-72
2022/06/12 02:41:35;;;;;;;0.00;0.00;;;18.70;75.00;;;;;;4130131;28;20129;-72
2022/06/12 02:44:09;;;;;;;0.00;0.00;;;18.70;74.90;;;;;;4103063;28;20090;-71
2022/06/12 02:46:54;;;;;;;0.00;0.00;;;18.70;74.80;;;;;;4089674;28;20066;-72
2022/06/12 02:49:17;;;;;;;0.00;0.00;;;18.70;74.70;;;;;;4089756;28;20048;-70
2022/06/12 02:52:06;;;;;;;0.00;0.00;;;18.60;74.80;;;;;;4102730;28;20399;-73
2022/06/12 02:54:27;;;;;;;0.00;0.00;;;18.60;74.80;;;;;;4089501;28;20070;-73
2022/06/12 02:57:18;;;;;;;0.00;0.00;;;18.60;75.00;;;;;;4116206;28;20050;-70
2022/06/12 03:00:06;;;;;;;0.00;0.00;;;18.60;74.80;;;;;;4089664;28;20058;-71
2022/06/12 03:02:50;;;;;;;0.00;0.00;;;18.50;74.60;;;;;;4103415;28;20054;-70
2022/06/12 03:05:30;;;;;;;0.00;0.00;;;18.50;74.80;;;;;;4103523;28;20150;-72
2022/06/12 03:08:00;;;;;;;0.00;0.00;;;18.50;74.90;;;;;;4090379;28;20055;-72
2022/06/12 03:10:27;;;;;;;0.00;0.00;;;18.50;74.20;;;;;;4090126;28;20063;-72
2022/06/12 03:12:52;;;;;;;0.00;0.00;;;18.40;74.50;;;;;;4103207;28;20085;-70
2022/06/12 03:15:44;;;;;;;0.00;0.00;;;18.40;74.40;;;;;;4115964;28;20110;-72
2022/06/12 03:18:12;;;;;;;0.00;0.00;;;18.50;74.10;;;;;;4103269;28;20069;-72
2022/06/12 03:21:08;;;;;;;0.00;0.00;;;18.40;74.10;;;;;;4090252;28;20079;-70
2022/06/12 03:23:48;;;;;;;0.00;0.00;;;18.50;73.40;;;;;;4103048;28;20043;-69
2022/06/12 03:26:15;;;;;;;0.00;0.00;;;18.40;73.20;;;;;;4116295;28;20505;-72
2022/06/12 03:29:11;;;;;;;0.00;0.00;;;18.10;73.50;;;;;;4089711;28;20064;-70
2022/06/12 03:31:52;;;;;;;0.00;0.00;;;18.10;73.70;;;;;;4089596;28;20093;-72
2022/06/12 03:34:30;;;;;;;0.00;0.00;;;18.10;73.80;;;;;;4103290;28;20047;-72
2022/06/12 03:37:09;;;;;;;0.00;0.00;;;18.20;73.70;;;;;;4116003;28;20043;-71
2022/06/12 03:39:44;;;;;;;0.00;0.00;;;18.20;73.50;;;;;;4115793;28;20061;-71
2022/06/12 03:42:37;;;;;;;0.00;0.00;;;18.20;73.60;;;;;;4129920;28;20039;-70
2022/06/12 03:45:21;;;;;;;0.00;0.00;;;18.30;74.00;;;;;;4103600;28;20122;-72
2022/06/12 03:47:52;;;;;;;0.00;0.00;;;18.30;74.20;;;;;;4117412;28;20051;-70
2022/06/12 03:50:21;;;;;;;0.00;0.00;;;18.30;74.40;;;;;;4102720;28;20518;-70
2022/06/12 03:52:46;;;;;;;0.00;0.00;;;18.30;74.50;;;;;;4103150;28;20059;-73
2022/06/12 03:55:09;;;;;;;0.00;0.00;;;18.30;74.60;;;;;;4103445;28;20066;-71
2022/06/12 03:57:53;;;;;;;0.00;0.00;;;18.30;74.70;;;;;;4102372;28;20075;-73
2022/06/12 04:00:24;;;;;;;0.00;0.00;;;18.30;74.90;;;;;;4115762;28;20058;-72
2022/06/12 04:03:00;;;;;;;0.00;0.00;;;18.30;74.90;;;;;;4102526;28;20110;-70
2022/06/12 04:05:31;;;;;;;0.00;0.00;;;18.30;74.90;;;;;;4116272;28;20069;-74
2022/06/12 04:07:55;;;;;;;0.00;0.00;;;18.30;74.60;;;;;;4103196;28;20056;-70
2022/06/12 04:10:21;;;;;;;0.00;0.00;;;18.30;74.40;;;;;;4103014;28;20414;-73
2022/06/12 04:12:44;;;;;;;0.00;0.00;;;18.30;74.10;;;;;;4103181;28;20494;-73
2022/06/12 04:15:19;;;;;;;0.00;0.00;;;18.30;73.90;;;;;;4103516;28;20106;-70
2022/06/12 04:17:41;;;;;;;0.00;0.00;;;18.30;73.60;;;;;;4089972;28;20387;-72
2022/06/12 04:20:12;;;;;;;0.00;0.00;;;18.30;73.60;;;;;;4116649;28;20039;-73
2022/06/12 04:22:55;;;;;;;0.00;0.00;;;18.30;73.40;;;;;;4116499;28;20070;-71
2022/06/12 04:25:40;;;;;;;0.00;0.00;;;18.30;73.60;;;;;;4102548;28;20106;-73
2022/06/12 04:28:21;;;;;;;0.00;0.00;;;18.20;73.80;;;;;;4106362;28;20055;-70
2022/06/12 04:30:45;;;;;;;0.00;0.00;;;18.30;74.60;;;;;;4116740;28;20421;-71
2022/06/12 04:33:22;;;;;;;0.00;0.00;;;18.30;74.10;;;;;;4089489;28;20315;-72
2022/06/12 04:35:58;;;;;;;0.00;0.00;;;18.40;74.40;;;;;;4102512;28;20086;-70
2022/06/12 04:38:24;;;;;;;0.00;0.00;;;18.40;74.30;;;;;;4105520;28;20071;-73
2022/06/12 04:40:46;;;;;;;0.00;0.00;;;18.40;74.40;;;;;;4132332;28;20046;-73
2022/06/12 04:43:11;;;;;;;0.00;0.00;;;18.40;74.60;;;;;;4105292;28;20075;-70
2022/06/12 04:45:41;;;;;;;0.00;0.00;;;18.40;74.70;;;;;;4105281;28;20138;-71
2022/06/12 04:48:05;;;;;;;0.00;0.00;;;18.50;75.00;;;;;;4091760;28;20134;-72
2022/06/12 04:50:29;;;;;;;0.00;0.00;;;18.50;75.50;;;;;;4118606;28;20098;-73
2022/06/12 04:52:52;;;;;;;0.00;0.00;;;18.50;75.70;;;;;;4118074;28;20593;-72
2022/06/12 04:55:13;;;;;;;0.00;0.00;;;18.60;75.80;;;;;;4091615;28;20131;-70
2022/06/12 04:57:35;;;;;;;0.00;0.00;;;18.60;75.80;;;;;;4104904;28;20039;-71
2022/06/12 04:59:58;;;;;;;0.00;0.00;;;18.60;75.90;;;;;;4104843;28;20058;-73
2022/06/12 05:02:23;;;;;;;0.00;0.00;;;18.70;76.10;;;;;;4092072;28;20055;-73
2022/06/12 05:04:53;;;;;;;0.00;0.00;;;18.70;76.40;;;;;;4104083;28;20094;-71
2022/06/12 05:07:20;;;;;;;0.00;0.00;;;18.90;76.60;;;;;;4102151;29;20047;-74
2022/06/12 05:09:46;;;;;;;0.00;0.00;;;18.90;76.40;;;;;;4104818;28;20086;-71
2022/06/12 05:12:12;;;;;;;0.00;0.00;;;19.00;75.90;;;;;;4104526;28;20051;-71
2022/06/12 05:14:34;;;;;;;0.00;0.00;;;19.10;75.50;;;;;;4104779;28;20537;-71
2022/06/12 05:17:00;;;;;;;0.00;0.00;;;19.10;75.30;;;;;;4118158;28;20062;-70
2022/06/12 05:19:30;;;;;;;0.00;0.00;;;19.10;75.00;;;;;;4104544;28;20123;-70
2022/06/12 05:21:52;;;;;;;0.00;0.00;;;19.20;75.10;;;;;;4104613;28;20055;-72
2022/06/12 05:24:17;;;;;;;0.00;0.00;;;19.40;75.00;;;;;;4117968;28;20138;-73
2022/06/12 05:26:45;;;;;;;0.00;0.00;;;19.40;74.10;;;;;;4117792;28;20062;-72
2022/06/12 05:29:13;;;;;;;0.00;0.00;;;19.50;73.10;;;;;;4103890;28;20090;-71
2022/06/12 05:31:38;;;;;;;0.00;0.00;;;19.60;73.70;;;;;;4104219;28;20039;-72
2022/06/12 05:34:05;;;;;;;0.00;0.00;;;19.80;74.10;;;;;;4090813;28;20115;-71
2022/06/12 05:36:29;;;;;;;0.00;0.00;;;19.90;74.50;;;;;;4117730;28;20091;-71
2022/06/12 05:38:52;;;;;;;0.00;0.00;;;20.10;74.30;;;;;;4117743;28;20478;-73
2022/06/12 05:41:14;;;;;;;0.00;0.00;;;20.10;74.50;;;;;;4088603;29;20068;-71
2022/06/12 05:43:40;;;;;;;0.00;0.00;;;20.20;74.30;;;;;;4088768;28;20498;-72
2022/06/12 05:46:07;;;;;;;0.00;0.00;;;20.30;74.10;;;;;;4104260;28;20470;-72
2022/06/12 05:48:32;;;;;;;0.00;0.00;;;20.40;74.50;;;;;;4103174;28;20051;-72
2022/06/12 05:50:57;;;;;;;0.00;0.00;;;20.60;74.70;;;;;;4091056;28;20059;-72
2022/06/12 05:53:24;;;;;;;0.00;0.00;;;20.60;75.30;;;;;;4116618;28;20118;-69
2022/06/12 05:55:47;;;;;;;0.00;0.00;;;20.80;75.20;;;;;;4117563;28;20110;-71
2022/06/12 05:58:12;;;;;;;0.00;0.00;;;20.90;74.90;;;;;;4103820;28;20106;-71
2022/06/12 06:00:35;;;;;;;0.00;0.00;;;21.00;74.60;;;;;;4104164;28;20055;-73
2022/06/12 06:02:57;;;;;;;0.00;0.00;;;21.00;73.50;;;;;;4117383;28;20132;-74
2022/06/12 06:05:20;;;;;;;0.00;0.00;;;21.00;73.60;;;;;;4103985;28;20146;-72
2022/06/12 06:07:44;;;;;;;0.00;0.00;;;21.00;73.20;;;;;;4104235;28;20691;-73
2022/06/12 06:10:22;;;;;;;0.00;0.00;;;21.00;72.50;;;;;;4103944;28;20102;-73
2022/06/12 06:12:46;;;;;;;0.00;0.00;;;20.90;72.40;;;;;;4116850;28;20058;-70
2022/06/12 06:15:12;;;;;;;0.00;0.00;;;20.80;72.20;;;;;;4103819;28;20043;-73
2022/06/12 06:17:36;;;;;;;0.00;0.00;;;20.60;72.70;;;;;;4090469;28;20047;-72
2022/06/12 06:20:01;;;;;;;0.00;0.00;;;20.60;72.60;;;;;;4103739;28;20510;-71
2022/06/12 06:22:23;;;;;;;0.00;0.00;;;20.70;72.80;;;;;;4090426;28;20051;-72
2022/06/12 06:24:46;;;;;;;0.00;0.00;;;20.80;72.80;;;;;;4103525;28;20146;-71
2022/06/12 06:27:08;;;;;;;0.00;0.00;;;20.90;72.90;;;;;;4103832;28;20636;-73
2022/06/12 06:29:30;;;;;;;0.00;0.00;;;21.00;73.30;;;;;;4103614;28;20039;-72
2022/06/12 06:31:55;;;;;;;0.00;0.00;;;21.20;73.40;;;;;;4103482;28;20459;-73
2022/06/12 06:34:22;;;;;;;0.00;0.00;;;21.40;73.80;;;;;;4103206;28;20047;-71
2022/06/12 06:36:48;;;;;;;0.00;0.00;;;21.50;73.60;;;;;;4090121;28;20107;-73
2022/06/12 06:39:13;;;;;;;0.00;0.00;;;21.60;72.90;;;;;;4103638;28;20043;-71
2022/06/12 06:41:40;;;;;;;0.00;0.00;;;21.70;72.60;;;;;;4116230;28;20521;-72
2022/06/12 06:46:45;;;;;;;0.00;0.00;;;21.40;72.80;;;;;;4103401;28;20066;-71
2022/06/12 06:51:53;;;;;;;0.00;0.00;;;21.20;70.20;;;;;;4116398;28;20125;-73
2022/06/12 06:54:20;;;;;;;0.00;0.00;;;21.10;69.70;;;;;;4103007;28;20422;-70
2022/06/12 06:56:45;;;;;;;0.00;0.00;;;21.30;69.10;;;;;;4076425;28;20056;-71
2022/06/12 06:59:10;;;;;;;0.00;0.00;;;21.50;68.80;;;;;;4089562;28;20048;-73
2022/06/12 07:01:39;;;;;;;0.00;0.00;;;21.80;69.10;;;;;;4102990;28;20062;-73
2022/06/12 07:04:04;;;;;;;0.00;0.00;;;22.00;69.80;;;;;;4104086;28;20062;-71
2022/06/12 07:06:26;;;;;;;0.00;0.00;;;22.20;69.00;;;;;;4106500;28;20056;-71
2022/06/12 07:08:51;;;;;;;0.00;0.00;;;22.10;68.90;;;;;;4119393;28;20057;-71
2022/06/12 07:11:16;;;;;;;0.00;0.00;;;22.10;69.30;;;;;;4106310;28;20047;-70
2022/06/12 07:13:38;;;;;;;0.00;0.00;;;22.00;68.90;;;;;;4092324;28;20036;-71
2022/06/12 07:16:02;;;;;;;0.00;0.00;;;22.00;68.10;;;;;;4092480;28;20107;-72
2022/06/12 07:18:26;;;;;;;0.00;0.00;;;22.00;67.60;;;;;;4093027;28;20075;-72
2022/06/12 07:20:52;;;;;;;0.00;0.00;;;21.90;67.90;;;;;;4118946;28;20054;-71
2022/06/12 07:23:17;;;;;;;0.00;0.00;;;21.80;67.50;;;;;;4119348;28;20097;-71
2022/06/12 07:25:43;;;;;;;0.00;0.00;;;21.80;67.90;;;;;;4105454;28;20055;-71
2022/06/12 07:28:08;;;;;;;0.00;0.00;;;21.80;67.50;;;;;;4103830;28;20055;-73
2022/06/12 07:30:33;;;;;;;0.00;0.00;;;21.70;67.80;;;;;;4106177;28;20047;-75
2022/06/12 07:32:55;;;;;;;0.00;0.00;;;21.70;68.60;;;;;;4119782;28;20105;-73
2022/06/12 07:35:20;;;;;;;0.00;0.00;;;21.80;69.60;;;;;;4107087;28;20039;-75
2022/06/12 07:37:43;;;;;;;0.00;0.00;;;21.80;69.60;;;;;;4106519;28;20106;-73
2022/06/12 07:40:13;;;;;;;0.00;0.00;;;21.70;69.10;;;;;;4106275;28;20384;-73
2022/06/12 07:42:35;;;;;;;0.00;0.00;;;21.70;69.20;;;;;;4093667;28;20047;-72
2022/06/12 07:45:00;;;;;;;0.00;0.00;;;21.70;69.80;;;;;;4133586;28;20153;-71
2022/06/12 07:47:27;;;;;;;0.00;0.00;;;21.80;69.10;;;;;;4104083;28;20047;-73
2022/06/12 07:49:51;;;;;;;0.00;0.00;;;21.70;68.50;;;;;;4102716;28;20509;-72
2022/06/12 07:52:16;;;;;;;0.00;0.00;;;21.40;68.90;;;;;;4102833;28;20059;-73
2022/06/12 07:54:44;;;;;;;0.00;0.00;;;21.50;69.20;;;;;;4129621;28;20117;-71
2022/06/12 07:57:07;;;;;;;0.00;0.00;;;21.50;69.20;;;;;;4102601;28;20150;-70
2022/06/12 07:59:29;;;;;;;0.00;0.00;;;21.60;69.30;;;;;;4102431;28;20047;-72
2022/06/12 08:01:53;;;;;;;0.00;0.00;;;21.80;68.70;;;;;;4102753;28;20110;-71
2022/06/12 08:04:17;;;;;;;0.00;0.00;;;21.80;67.90;;;;;;4102741;28;20078;-71
2022/06/12 08:06:43;;;;;;;0.00;0.00;;;21.80;68.80;;;;;;4089232;28;20051;-71
2022/06/12 08:09:07;;;;;;;0.00;0.00;;;21.90;68.50;;;;;;4115232;28;20078;-73
2022/06/12 08:11:30;;;;;;;0.00;0.00;;;21.90;67.50;;;;;;4102864;28;20516;-73
2022/06/12 08:13:54;;;;;;;0.00;0.00;;;21.90;67.30;;;;;;4105383;28;20138;-72
2022/06/12 08:16:24;;;;;;;0.00;0.00;;;22.00;67.40;;;;;;4118436;28;20075;-73
2022/06/12 08:18:49;;;;;;;0.00;0.00;;;22.00;68.00;;;;;;4132347;28;20042;-72
2022/06/12 08:21:15;;;;;;;0.00;0.00;;;22.10;67.90;;;;;;4118818;28;20042;-70
2022/06/12 08:23:48;;;;;;;0.00;0.00;;;22.20;66.80;;;;;;4105484;28;20059;-72
2022/06/12 08:26:33;;;;;;;0.00;0.00;;;22.40;66.70;;;;;;4092838;28;20138;-76
2022/06/12 08:29:03;;;;;;;0.00;0.00;;;22.50;66.10;;;;;;4105511;28;20447;-71
2022/06/12 08:31:29;;;;;;;0.00;0.00;;;22.40;66.00;;;;;;4105313;28;20453;-71
2022/06/12 08:33:55;;;;;;;0.00;0.00;;;22.40;66.50;;;;;;4118765;28;20047;-74
2022/06/12 08:36:21;;;;;;;0.00;0.00;;;22.50;66.90;;;;;;4119269;28;20466;-72
2022/06/12 08:38:43;;;;;;;0.00;0.00;;;22.50;65.70;;;;;;4078799;28;20108;-69
2022/06/12 08:41:08;;;;;;;0.00;0.00;;;22.60;66.10;;;;;;4118616;28;20103;-71
2022/06/12 08:43:49;;;;;;;0.00;0.00;;;22.60;66.70;;;;;;4132391;28;20668;-70
2022/06/12 08:46:23;;;;;;;0.00;0.00;;;22.70;65.30;;;;;;4118656;28;20046;-72
2022/06/12 08:49:02;;;;;;;0.00;0.00;;;22.60;64.80;;;;;;4091561;28;20439;-71
2022/06/12 08:51:38;;;;;;;0.00;0.00;;;22.50;64.90;;;;;;4105010;28;20538;-70
2022/06/12 08:54:06;;;;;;;0.00;0.00;;;22.60;64.80;;;;;;4118440;28;20083;-70
2022/06/12 08:56:36;;;;;;;0.00;0.00;;;22.50;64.90;;;;;;4133542;28;20390;-72
2022/06/12 08:59:15;;;;;;;0.00;0.00;;;22.70;66.20;;;;;;4119875;28;20046;-71
2022/06/12 09:01:42;;;;;;;0.00;0.00;;;22.80;64.90;;;;;;4120930;28;20058;-71
2022/06/12 09:04:06;;;;;;;0.00;0.00;;;23.00;65.50;;;;;;4107861;28;20055;-71
2022/06/12 09:06:40;;;;;;;0.00;0.00;;;23.20;65.50;;;;;;4094068;28;20051;-70
2022/06/12 09:09:11;;;;;;;0.00;0.00;;;23.20;64.60;;;;;;4105925;28;20417;-70
2022/06/12 09:11:45;;;;;;;0.00;0.00;;;23.30;63.70;;;;;;4119509;28;20047;-69
2022/06/12 09:14:29;;;;;;;0.00;0.00;;;23.40;62.90;;;;;;4093071;28;20076;-69
2022/06/12 09:17:29;;;;;;;0.00;0.00;;;23.50;62.70;;;;;;4134185;28;20416;-70
2022/06/12 09:20:16;;;;;;;0.00;0.00;;;23.60;62.90;;;;;;4059262;29;20053;-70
2022/06/12 09:23:01;;;;;;;0.00;0.00;;;23.70;62.80;;;;;;4071781;29;20068;-70
2022/06/12 09:25:37;;;;;;;0.00;0.00;;;23.80;61.70;;;;;;4086482;29;20060;-71
2022/06/12 09:28:30;;;;;;;0.00;0.00;;;23.80;63.20;;;;;;4075059;29;20116;-71
2022/06/12 09:31:06;;;;;;;0.00;0.00;;;24.00;62.20;;;;;;4061718;29;20112;-71
2022/06/12 09:33:54;;;;;;;0.00;0.00;;;23.90;60.90;;;;;;4075600;29;20048;-70
2022/06/12 09:38:18;;;;;;;0.00;0.00;;;24.00;61.80;;;;;;4066379;29;20497;-71
2022/06/12 09:40:20;;;;;;;0.00;0.00;;;24.10;62.00;;;;;;4071694;29;20052;-71
2022/06/12 09:42:58;;;;;;;0.00;0.00;;;24.20;61.60;;;;;;4059108;29;20040;-71
2022/06/12 09:45:38;;;;;;;0.00;0.00;;;24.30;61.70;;;;;;4072425;29;20439;-71
2022/06/12 09:48:14;;;;;;;0.00;0.00;;;24.40;61.90;;;;;;4085343;29;20148;-71
2022/06/12 09:50:55;;;;;;;0.00;0.00;;;24.40;59.50;;;;;;4089176;28;20058;-68
2022/06/12 09:53:57;;;;;;;0.00;0.00;;;24.30;60.10;;;;;;4103882;28;20121;-70
2022/06/12 09:56:42;;;;;;;0.00;0.00;;;24.40;59.80;;;;;;4104391;28;20119;-71
2022/06/12 09:59:18;;;;;;;0.00;0.00;;;24.50;60.40;;;;;;4103466;28;20060;-73
2022/06/12 10:01:47;;;;;;;0.00;0.00;;;24.60;59.10;;;;;;4117402;28;20358;-72
2022/06/12 10:04:12;;;;;;;0.00;0.00;;;24.50;57.70;;;;;;4104155;28;20055;-71
2022/06/12 10:06:58;;;;;;;0.00;0.00;;;24.50;57.10;;;;;;4103784;28;20089;-72
2022/06/12 10:09:35;;;;;;;0.00;0.00;;;24.40;57.30;;;;;;4090822;28;20079;-70
2022/06/12 10:12:09;;;;;;;0.00;0.00;;;24.40;57.00;;;;;;4090551;28;20075;-70
2022/06/12 10:14:48;;;;;;;0.00;0.00;;;24.50;58.90;;;;;;4103942;28;20054;-70
2022/06/12 10:17:15;;;;;;;0.00;0.00;;;24.60;57.80;;;;;;4103873;28;20039;-70
2022/06/12 10:19:50;;;;;;;0.00;0.00;;;24.80;57.60;;;;;;4130595;28;20129;-71
2022/06/12 10:22:29;;;;;;;0.00;0.00;;;25.00;58.30;;;;;;4117209;28;20517;-72
2022/06/12 10:24:51;;;;;;;0.00;0.00;;;25.10;58.10;;;;;;4103692;28;20059;-70
2022/06/12 10:27:15;;;;;;;0.00;0.00;;;25.20;58.10;;;;;;4103521;28;20058;-71
2022/06/12 10:29:48;;;;;;;0.00;0.00;;;25.20;58.10;;;;;;4117104;28;20050;-73
2022/06/12 10:32:19;;;;;;;0.00;0.00;;;25.40;59.10;;;;;;4116649;28;20137;-72
2022/06/12 10:34:41;;;;;;;0.00;0.00;;;25.40;59.30;;;;;;4103113;28;20044;-70
2022/06/12 10:37:27;;;;;;;0.00;0.00;;;25.50;60.30;;;;;;4117082;28;20058;-71
2022/06/12 10:40:21;;;;;;;0.00;0.00;;;25.70;60.60;;;;;;4103395;28;20149;-71
2022/06/12 10:42:51;;;;;;;0.00;0.00;;;25.80;60.80;;;;;;4103965;28;20431;-70
2022/06/12 10:45:20;;;;;;;0.00;0.00;;;25.90;60.60;;;;;;4116606;28;20122;-71
2022/06/12 10:47:47;;;;;;;0.00;0.00;;;26.00;61.00;;;;;;4103654;28;20063;-72
2022/06/12 10:50:13;;;;;;;0.00;0.00;;;26.10;61.10;;;;;;4089908;28;20051;-69
2022/06/12 10:52:37;;;;;;;0.00;0.00;;;26.00;60.50;;;;;;4116387;28;20118;-72
2022/06/12 10:55:10;;;;;;;0.00;0.00;;;26.00;59.10;;;;;;4103009;28;20055;-71
2022/06/12 10:58:05;;;;;;;0.00;0.00;;;26.00;60.70;;;;;;4103616;28;20146;-72
2022/06/12 11:00:39;;;;;;;0.00;0.00;;;26.00;59.80;;;;;;4102755;28;20055;-72
2022/06/12 11:03:23;;;;;;;0.00;0.00;;;26.00;61.50;;;;;;4103666;28;20114;-69
2022/06/12 11:06:26;;;;;;;0.00;0.00;;;26.20;61.40;;;;;;4103247;28;20474;-71
2022/06/12 11:09:03;;;;;;;0.00;0.00;;;26.30;61.40;;;;;;4096286;28;20097;-72
2022/06/12 11:11:39;;;;;;;0.00;0.00;;;26.40;60.20;;;;;;4102873;28;20086;-70
2022/06/12 11:14:19;;;;;;;0.00;0.00;;;26.30;59.60;;;;;;4116462;28;20047;-74
2022/06/12 11:17:12;;;;;;;0.00;0.00;;;26.30;60.20;;;;;;4089607;28;20177;-73
2022/06/12 11:19:54;;;;;;;0.00;0.00;;;26.30;60.30;;;;;;4103325;28;20091;-73
2022/06/12 11:22:31;;;;;;;0.00;0.00;;;26.30;60.20;;;;;;4102948;28;20051;-71
2022/06/12 11:25:12;;;;;;;0.00;0.00;;;26.40;59.40;;;;;;4103017;28;20075;-71
2022/06/12 11:28:00;;;;;;;0.00;0.00;;;26.30;59.50;;;;;;4102908;28;20371;-73
2022/06/12 11:30:37;;;;;;;0.00;0.00;;;26.30;59.90;;;;;;4102853;28;20588;-71
2022/06/12 11:33:14;;;;;;;0.00;0.00;;;26.50;59.10;;;;;;4102791;28;20129;-73
2022/06/12 11:36:35;;;;;;;0.00;0.00;;;26.50;58.10;;;;;;4116297;28;20043;-71
2022/06/12 11:39:18;;;;;;;0.00;0.00;;;26.60;58.60;;;;;;4070411;29;20115;-71
2022/06/12 11:42:01;;;;;;;0.00;0.00;;;26.60;58.90;;;;;;4083469;29;20043;-71
2022/06/12 11:44:29;;;;;;;0.00;0.00;;;26.70;57.70;;;;;;4057214;29;20048;-70
2022/06/12 11:46:59;;;;;;;0.00;0.00;;;26.80;57.50;;;;;;4072463;29;20056;-72
2022/06/12 11:49:29;;;;;;;0.00;0.00;;;26.80;55.20;;;;;;4073484;29;20124;-75
2022/06/12 11:52:06;;;;;;;0.00;0.00;;;26.60;56.00;;;;;;4086607;29;20056;-74
2022/06/12 11:54:39;;;;;;;0.00;0.00;;;26.50;54.80;;;;;;4057255;29;20081;-71
2022/06/12 11:57:15;;;;;;;0.00;0.00;;;26.50;58.00;;;;;;4045740;29;20112;-74
2022/06/12 12:00:20;;;;;;;0.00;0.00;;;26.70;57.30;;;;;;4043048;29;20041;-70
2022/06/12 12:03:04;;;;;;;0.00;0.00;;;26.90;57.80;;;;;;4058264;29;20056;-72
2022/06/12 12:05:50;;;;;;;0.00;0.00;;;27.00;56.20;;;;;;4071213;29;20096;-71
2022/06/12 12:08:46;;;;;;;0.00;0.00;;;27.10;55.70;;;;;;4070726;29;20068;-70
2022/06/12 12:11:36;;;;;;;0.00;0.00;;;27.10;54.60;;;;;;4103444;28;20082;-70
2022/06/12 12:14:04;;;;;;;0.00;0.00;;;27.00;53.70;;;;;;4076490;29;20080;-71
2022/06/12 12:16:45;;;;;;;0.00;0.00;;;26.90;53.70;;;;;;4089615;29;20048;-73
2022/06/12 12:19:17;;;;;;;0.00;0.00;;;26.80;53.70;;;;;;4089568;29;20451;-70
2022/06/12 12:21:45;;;;;;;0.00;0.00;;;26.80;54.50;;;;;;4116611;28;20062;-71
2022/06/12 12:24:14;;;;;;;0.00;0.00;;;26.90;54.20;;;;;;4089347;29;20396;-69
2022/06/12 12:26:41;;;;;;;0.00;0.00;;;27.20;55.00;;;;;;4103338;28;20094;-73
2022/06/12 12:29:20;;;;;;;0.00;0.00;;;27.40;55.10;;;;;;4116185;28;20038;-71
2022/06/12 12:31:49;;;;;;;0.00;0.00;;;27.40;54.30;;;;;;4116270;28;20485;-73
2022/06/12 12:34:15;;;;;;;0.00;0.00;;;27.40;53.90;;;;;;4089270;29;20043;-73
2022/06/12 12:42:38;;;;;;;0.00;0.00;;;27.50;53.20;;;;;;4087177;29;20044;-71
2022/06/12 12:45:22;;;;;;;0.00;0.00;;;27.50;52.50;;;;;;4116367;28;20054;-71
2022/06/12 12:47:44;;;;;;;0.00;0.00;;;27.60;52.40;;;;;;4089400;28;20597;-72
2022/06/12 12:50:13;;;;;;;0.00;0.00;;;27.60;51.90;;;;;;4076235;29;20545;-71
2022/06/12 12:52:53;;;;;;;0.00;0.00;;;27.60;51.80;;;;;;4092726;28;20497;-71
2022/06/12 12:55:24;;;;;;;0.00;0.00;;;27.50;51.90;;;;;;4105534;28;20102;-70
2022/06/12 12:57:49;;;;;;;0.00;0.00;;;27.60;52.60;;;;;;4091734;28;20051;-73
2022/06/12 13:00:24;;;;;;;0.00;0.00;;;27.60;50.80;;;;;;4102736;29;20487;-71
2022/06/12 13:02:53;;;;;;;0.00;0.00;;;27.60;51.60;;;;;;4104390;28;20142;-72
2022/06/12 13:05:21;;;;;;;0.00;0.00;;;27.60;50.70;;;;;;4091953;28;20375;-71
2022/06/12 13:07:52;;;;;;;0.00;0.00;;;27.60;50.60;;;;;;4105487;28;20098;-71
2022/06/12 13:10:51;;;;;;;0.00;0.00;;;27.60;50.90;;;;;;4104720;28;20044;-71
2022/06/12 13:13:31;;;;;;;0.00;0.00;;;27.60;51.40;;;;;;4132108;28;20046;-72
2022/06/12 13:16:14;;;;;;;0.00;0.00;;;27.60;50.90;;;;;;4091357;28;20506;-72
2022/06/12 13:18:46;;;;;;;0.00;0.00;;;27.60;50.70;;;;;;4117823;28;20071;-71
2022/06/12 13:21:16;;;;;;;0.00;0.00;;;27.70;51.70;;;;;;4091232;28;20066;-70
2022/06/12 13:23:50;;;;;;;0.00;0.00;;;27.80;52.20;;;;;;4118090;28;20054;-69
2022/06/12 13:26:19;;;;;;;0.00;0.00;;;28.00;52.00;;;;;;4104653;28;20458;-71
2022/06/12 13:28:51;;;;;;;0.00;0.00;;;28.20;51.20;;;;;;4104949;28;20149;-70
2022/06/12 13:31:19;;;;;;;0.00;0.00;;;28.20;50.40;;;;;;4104573;28;20548;-73